sensor_id;sensor_type;location;lat;lon;timestamp;pressure;altitude;pressure_sealevel;temperature;humidity
59493;BME280;45497;43.996;22.876;2023-03-21T00:00:40;101072.06;;;14.12;43.38
59493;BME280;45497;43.996;22.876;2023-03-21T00:03:06;101059.03;;;14.03;43.47
59493;BME280;45497;43.996;22.876;2023-03-21T00:05:33;101071.22;;;13.97;43.74
59493;BME280;45497;43.996;22.876;2023-03-21T00:07:58;101063.69;;;14.01;43.59
59493;BME280;45497;43.996;22.876;2023-03-21T00:10:24;101058.00;;;14.04;43.38
59493;BME280;45497;43.996;22.876;2023-03-21T00:12:50;101061.94;;;14.08;43.33
59493;BME280;45497;43.996;22.876;2023-03-21T00:15:23;101054.59;;;14.10;43.41
59493;BME280;45497;43.996;22.876;2023-03-21T00:17:51;101053.22;;;14.14;43.39
59493;BME280;45497;43.996;22.876;2023-03-21T00:20:18;101050.72;;;14.12;43.17
59493;BME280;45497;43.996;22.876;2023-03-21T00:22:44;101048.72;;;14.14;43.25
59493;BME280;45497;43.996;22.876;2023-03-21T00:25:10;101043.38;;;14.14;43.28
59493;BME280;45497;43.996;22.876;2023-03-21T00:27:36;101047.06;;;14.13;43.01
59493;BME280;45497;43.996;22.876;2023-03-21T00:30:03;101040.72;;;14.14;43.34
59493;BME280;45497;43.996;22.876;2023-03-21T00:32:28;101037.94;;;14.08;43.23
59493;BME280;45497;43.996;22.876;2023-03-21T00:34:54;101035.56;;;14.13;43.50
59493;BME280;45497;43.996;22.876;2023-03-21T00:37:20;101035.28;;;14.23;43.83
59493;BME280;45497;43.996;22.876;2023-03-21T00:39:47;101031.78;;;14.37;43.27
59493;BME280;45497;43.996;22.876;2023-03-21T00:42:17;101029.44;;;14.49;43.29
59493;BME280;45497;43.996;22.876;2023-03-21T00:44:43;101019.66;;;14.56;43.04
59493;BME280;45497;43.996;22.876;2023-03-21T00:47:11;101028.84;;;14.68;43.15
59493;BME280;45497;43.996;22.876;2023-03-21T00:49:36;101029.19;;;14.80;43.07
59493;BME280;45497;43.996;22.876;2023-03-21T00:52:08;101028.03;;;14.89;42.54
59493;BME280;45497;43.996;22.876;2023-03-21T00:54:35;101027.91;;;14.98;42.86
59493;BME280;45497;43.996;22.876;2023-03-21T00:57:02;101029.81;;;15.04;42.82
59493;BME280;45497;43.996;22.876;2023-03-21T00:59:28;101034.56;;;15.08;42.69
59493;BME280;45497;43.996;22.876;2023-03-21T01:01:55;101029.47;;;15.14;42.12
59493;BME280;45497;43.996;22.876;2023-03-21T01:04:21;101041.66;;;15.16;42.34
59493;BME280;45497;43.996;22.876;2023-03-21T01:06:50;101042.66;;;15.15;42.36
59493;BME280;45497;43.996;22.876;2023-03-21T01:09:18;101039.34;;;15.13;42.22
59493;BME280;45497;43.996;22.876;2023-03-21T01:11:44;101041.75;;;15.08;42.06
59493;BME280;45497;43.996;22.876;2023-03-21T01:14:11;101043.44;;;15.09;42.13
59493;BME280;45497;43.996;22.876;2023-03-21T01:16:37;101039.88;;;15.02;42.46
59493;BME280;45497;43.996;22.876;2023-03-21T01:19:04;101043.28;;;14.96;42.42
59493;BME280;45497;43.996;22.876;2023-03-21T01:21:30;101041.66;;;14.95;42.46
59493;BME280;45497;43.996;22.876;2023-03-21T01:23:56;101035.28;;;14.96;42.63
59493;BME280;45497;43.996;22.876;2023-03-21T01:26:22;101028.41;;;14.86;42.91
59493;BME280;45497;43.996;22.876;2023-03-21T01:28:47;101025.94;;;14.85;42.82
59493;BME280;45497;43.996;22.876;2023-03-21T01:31:14;101028.34;;;14.80;42.82
59493;BME280;45497;43.996;22.876;2023-03-21T01:33:41;101023.53;;;14.68;43.19
59493;BME280;45497;43.996;22.876;2023-03-21T01:36:07;101021.75;;;14.76;43.19
59493;BME280;45497;43.996;22.876;2023-03-21T01:38:33;101019.34;;;14.81;42.78
59493;BME280;45497;43.996;22.876;2023-03-21T01:41:00;101024.22;;;14.77;43.07
59493;BME280;45497;43.996;22.876;2023-03-21T01:43:33;101028.75;;;14.77;42.89
59493;BME280;45497;43.996;22.876;2023-03-21T01:48:39;101021.66;;;14.69;43.04
59493;BME280;45497;43.996;22.876;2023-03-21T01:51:07;101025.19;;;14.54;43.59
59493;BME280;45497;43.996;22.876;2023-03-21T01:53:35;101003.78;;;14.48;43.85
59493;BME280;45497;43.996;22.876;2023-03-21T01:56:05;101017.31;;;14.46;43.84
59493;BME280;45497;43.996;22.876;2023-03-21T01:58:33;101014.31;;;14.56;43.60
59493;BME280;45497;43.996;22.876;2023-03-21T02:01:00;101005.78;;;14.61;43.46
59493;BME280;45497;43.996;22.876;2023-03-21T02:03:28;101004.88;;;14.53;43.70
59493;BME280;45497;43.996;22.876;2023-03-21T02:06:01;101001.81;;;14.57;43.80
59493;BME280;45497;43.996;22.876;2023-03-21T02:08:32;101004.47;;;14.57;43.74
59493;BME280;45497;43.996;22.876;2023-03-21T02:10:58;101008.66;;;14.44;43.91
59493;BME280;45497;43.996;22.876;2023-03-21T02:13:24;101009.50;;;14.45;43.86
59493;BME280;45497;43.996;22.876;2023-03-21T02:15:59;101011.97;;;14.46;43.86
59493;BME280;45497;43.996;22.876;2023-03-21T02:18:44;100999.63;;;14.45;43.75
59493;BME280;45497;43.996;22.876;2023-03-21T02:24:24;100992.72;;;14.51;43.96
59493;BME280;45497;43.996;22.876;2023-03-21T02:27:10;100992.41;;;14.39;44.45
59493;BME280;45497;43.996;22.876;2023-03-21T02:35:04;100987.94;;;14.61;44.26
59493;BME280;45497;43.996;22.876;2023-03-21T02:37:41;100995.44;;;14.72;44.45
59493;BME280;45497;43.996;22.876;2023-03-21T02:40:23;100991.63;;;14.82;43.70
59493;BME280;45497;43.996;22.876;2023-03-21T02:45:20;100993.81;;;15.00;43.87
59493;BME280;45497;43.996;22.876;2023-03-21T02:50:33;100989.78;;;15.04;43.80
59493;BME280;45497;43.996;22.876;2023-03-21T02:53:03;100991.03;;;15.08;43.82
59493;BME280;45497;43.996;22.876;2023-03-21T02:55:31;100994.69;;;15.00;44.05
59493;BME280;45497;43.996;22.876;2023-03-21T02:57:59;100987.59;;;14.93;44.28
59493;BME280;45497;43.996;22.876;2023-03-21T03:00:29;100987.75;;;14.84;44.41
59493;BME280;45497;43.996;22.876;2023-03-21T03:02:55;100997.72;;;14.97;44.41
59493;BME280;45497;43.996;22.876;2023-03-21T03:05:27;101005.34;;;15.00;44.43
59493;BME280;45497;43.996;22.876;2023-03-21T03:11:11;101009.19;;;15.19;43.97
59493;BME280;45497;43.996;22.876;2023-03-21T03:18:59;101011.78;;;15.34;43.55
59493;BME280;45497;43.996;22.876;2023-03-21T03:24:08;100999.81;;;15.30;43.58
59493;BME280;45497;43.996;22.876;2023-03-21T03:26:40;101003.09;;;15.25;43.86
59493;BME280;45497;43.996;22.876;2023-03-21T03:29:11;101003.03;;;15.19;43.99
59493;BME280;45497;43.996;22.876;2023-03-21T03:31:44;100999.22;;;15.06;44.25
59493;BME280;45497;43.996;22.876;2023-03-21T03:34:17;101003.31;;;15.02;44.75
59493;BME280;45497;43.996;22.876;2023-03-21T03:36:46;101004.91;;;14.97;44.84
59493;BME280;45497;43.996;22.876;2023-03-21T03:39:16;100999.38;;;14.77;45.33
59493;BME280;45497;43.996;22.876;2023-03-21T03:41:50;101002.84;;;14.56;45.70
59493;BME280;45497;43.996;22.876;2023-03-21T03:44:16;101004.91;;;14.39;46.01
59493;BME280;45497;43.996;22.876;2023-03-21T03:47:09;101013.19;;;14.29;46.06
59493;BME280;45497;43.996;22.876;2023-03-21T03:49:38;101008.00;;;14.21;46.15
59493;BME280;45497;43.996;22.876;2023-03-21T03:52:12;101004.19;;;14.15;46.69
59493;BME280;45497;43.996;22.876;2023-03-21T03:54:44;101002.75;;;14.12;46.53
59493;BME280;45497;43.996;22.876;2023-03-21T03:57:11;101008.72;;;14.14;46.35
59493;BME280;45497;43.996;22.876;2023-03-21T03:59:39;101019.88;;;14.03;47.01
59493;BME280;45497;43.996;22.876;2023-03-21T04:02:06;101017.47;;;13.93;47.33
59493;BME280;45497;43.996;22.876;2023-03-21T04:04:32;101016.94;;;13.83;47.36
59493;BME280;45497;43.996;22.876;2023-03-21T04:06:58;101009.94;;;13.67;47.46
59493;BME280;45497;43.996;22.876;2023-03-21T04:09:25;101021.78;;;13.65;47.86
59493;BME280;45497;43.996;22.876;2023-03-21T04:11:53;101016.91;;;13.53;47.62
59493;BME280;45497;43.996;22.876;2023-03-21T04:14:18;101031.03;;;13.54;47.87
59493;BME280;45497;43.996;22.876;2023-03-21T04:16:44;101042.34;;;13.56;47.96
59493;BME280;45497;43.996;22.876;2023-03-21T04:19:09;101042.81;;;13.60;47.95
59493;BME280;45497;43.996;22.876;2023-03-21T04:21:35;101039.78;;;13.63;47.94
59493;BME280;45497;43.996;22.876;2023-03-21T04:24:00;101054.13;;;13.62;47.98
59493;BME280;45497;43.996;22.876;2023-03-21T04:26:26;101058.06;;;13.51;48.17
59493;BME280;45497;43.996;22.876;2023-03-21T04:28:58;101049.38;;;13.34;48.92
59493;BME280;45497;43.996;22.876;2023-03-21T04:31:28;101053.72;;;13.27;49.06
59493;BME280;45497;43.996;22.876;2023-03-21T04:33:56;101048.66;;;13.17;49.43
59493;BME280;45497;43.996;22.876;2023-03-21T04:36:22;101043.38;;;13.09;49.52
59493;BME280;45497;43.996;22.876;2023-03-21T04:38:55;101052.44;;;12.99;49.81
59493;BME280;45497;43.996;22.876;2023-03-21T04:41:26;101053.16;;;12.93;50.10
59493;BME280;45497;43.996;22.876;2023-03-21T04:43:52;101054.06;;;12.86;50.29
59493;BME280;45497;43.996;22.876;2023-03-21T04:46:18;101060.13;;;12.71;50.85
59493;BME280;45497;43.996;22.876;2023-03-21T04:48:43;101053.09;;;12.78;50.38
59493;BME280;45497;43.996;22.876;2023-03-21T04:51:09;101058.28;;;12.72;50.83
59493;BME280;45497;43.996;22.876;2023-03-21T04:53:34;101065.66;;;12.61;50.93
59493;BME280;45497;43.996;22.876;2023-03-21T04:56:02;101074.34;;;12.55;51.10
59493;BME280;45497;43.996;22.876;2023-03-21T04:58:28;101070.97;;;12.61;50.99
59493;BME280;45497;43.996;22.876;2023-03-21T05:00:54;101073.81;;;12.60;50.84
59493;BME280;45497;43.996;22.876;2023-03-21T05:03:22;101083.31;;;12.54;51.19
59493;BME280;45497;43.996;22.876;2023-03-21T05:05:47;101068.47;;;12.60;50.92
59493;BME280;45497;43.996;22.876;2023-03-21T05:08:13;101074.25;;;12.72;50.69
59493;BME280;45497;43.996;22.876;2023-03-21T05:10:39;101066.78;;;12.67;50.86
59493;BME280;45497;43.996;22.876;2023-03-21T05:13:05;101067.31;;;12.62;50.93
59493;BME280;45497;43.996;22.876;2023-03-21T05:15:30;101081.91;;;12.67;50.86
59493;BME280;45497;43.996;22.876;2023-03-21T05:17:56;101088.63;;;12.54;51.29
59493;BME280;45497;43.996;22.876;2023-03-21T05:20:23;101093.19;;;12.37;51.79
59493;BME280;45497;43.996;22.876;2023-03-21T05:22:49;101095.06;;;12.29;52.16
59493;BME280;45497;43.996;22.876;2023-03-21T05:25:16;101093.53;;;12.34;52.11
59493;BME280;45497;43.996;22.876;2023-03-21T05:27:45;101080.56;;;12.31;52.18
59493;BME280;45497;43.996;22.876;2023-03-21T05:30:18;101092.06;;;12.32;52.07
59493;BME280;45497;43.996;22.876;2023-03-21T05:32:43;101095.53;;;12.32;52.14
59493;BME280;45497;43.996;22.876;2023-03-21T05:35:09;101099.34;;;12.38;52.01
59493;BME280;45497;43.996;22.876;2023-03-21T05:37:35;101093.31;;;12.44;51.89
59493;BME280;45497;43.996;22.876;2023-03-21T05:40:03;101100.81;;;12.40;51.93
59493;BME280;45497;43.996;22.876;2023-03-21T05:42:30;101094.75;;;12.55;51.68
59493;BME280;45497;43.996;22.876;2023-03-21T05:44:56;101092.41;;;12.60;51.55
59493;BME280;45497;43.996;22.876;2023-03-21T05:47:21;101096.50;;;12.71;51.19
59493;BME280;45497;43.996;22.876;2023-03-21T05:49:47;101101.41;;;12.90;50.84
59493;BME280;45497;43.996;22.876;2023-03-21T05:52:12;101089.81;;;12.83;51.00
59493;BME280;45497;43.996;22.876;2023-03-21T05:54:38;101097.56;;;12.93;50.80
59493;BME280;45497;43.996;22.876;2023-03-21T05:57:04;101087.16;;;12.83;51.23
59493;BME280;45497;43.996;22.876;2023-03-21T05:59:29;101089.63;;;12.85;51.29
59493;BME280;45497;43.996;22.876;2023-03-21T06:01:55;101087.28;;;12.90;51.22
59493;BME280;45497;43.996;22.876;2023-03-21T06:04:21;101090.34;;;13.01;50.72
59493;BME280;45497;43.996;22.876;2023-03-21T06:06:46;101092.97;;;13.10;50.55
59493;BME280;45497;43.996;22.876;2023-03-21T06:09:12;101088.16;;;13.28;50.42
59493;BME280;45497;43.996;22.876;2023-03-21T06:11:46;101093.47;;;13.36;49.83
59493;BME280;45497;43.996;22.876;2023-03-21T06:14:12;101093.97;;;13.32;49.98
59493;BME280;45497;43.996;22.876;2023-03-21T06:16:38;101090.97;;;13.35;49.81
59493;BME280;45497;43.996;22.876;2023-03-21T06:19:03;101090.72;;;13.45;49.72
59493;BME280;45497;43.996;22.876;2023-03-21T06:21:29;101099.56;;;13.45;49.61
59493;BME280;45497;43.996;22.876;2023-03-21T06:23:55;101097.28;;;13.57;49.47
59493;BME280;45497;43.996;22.876;2023-03-21T06:26:20;101092.34;;;13.69;49.03
59493;BME280;45497;43.996;22.876;2023-03-21T06:28:51;101096.88;;;13.83;48.72
59493;BME280;45497;43.996;22.876;2023-03-21T06:31:18;101091.81;;;13.88;48.65
59493;BME280;45497;43.996;22.876;2023-03-21T06:33:47;101084.09;;;13.93;48.40
59493;BME280;45497;43.996;22.876;2023-03-21T06:36:13;101083.72;;;13.96;48.45
59493;BME280;45497;43.996;22.876;2023-03-21T06:38:38;101084.38;;;13.99;48.55
59493;BME280;45497;43.996;22.876;2023-03-21T06:41:05;101080.25;;;14.11;48.29
59493;BME280;45497;43.996;22.876;2023-03-21T06:43:31;101076.63;;;14.19;48.10
59493;BME280;45497;43.996;22.876;2023-03-21T06:45:57;101088.44;;;14.24;48.27
59493;BME280;45497;43.996;22.876;2023-03-21T06:48:23;101087.84;;;14.29;47.99
59493;BME280;45497;43.996;22.876;2023-03-21T06:50:49;101083.81;;;14.33;47.71
59493;BME280;45497;43.996;22.876;2023-03-21T06:55:59;101084.91;;;14.53;47.39
59493;BME280;45497;43.996;22.876;2023-03-21T06:58:24;101086.28;;;14.64;47.31
59493;BME280;45497;43.996;22.876;2023-03-21T07:00:51;101094.16;;;14.72;47.26
59493;BME280;45497;43.996;22.876;2023-03-21T07:03:17;101090.69;;;14.72;47.12
59493;BME280;45497;43.996;22.876;2023-03-21T07:05:43;101088.72;;;14.81;47.35
59493;BME280;45497;43.996;22.876;2023-03-21T07:08:09;101089.63;;;14.88;47.28
59493;BME280;45497;43.996;22.876;2023-03-21T07:10:40;101103.09;;;15.01;46.95
59493;BME280;45497;43.996;22.876;2023-03-21T07:13:06;101113.66;;;15.09;46.56
59493;BME280;45497;43.996;22.876;2023-03-21T07:15:32;101108.50;;;15.08;46.51
59493;BME280;45497;43.996;22.876;2023-03-21T07:17:58;101105.72;;;15.16;46.27
59493;BME280;45497;43.996;22.876;2023-03-21T07:20:24;101104.78;;;15.24;45.79
59493;BME280;45497;43.996;22.876;2023-03-21T07:22:51;101111.19;;;15.29;45.73
59493;BME280;45497;43.996;22.876;2023-03-21T07:25:17;101111.06;;;15.38;45.20
59493;BME280;45497;43.996;22.876;2023-03-21T07:27:44;101124.09;;;15.47;45.34
59493;BME280;45497;43.996;22.876;2023-03-21T07:30:11;101120.00;;;15.52;45.05
59493;BME280;45497;43.996;22.876;2023-03-21T07:32:37;101115.97;;;15.62;45.80
59493;BME280;45497;43.996;22.876;2023-03-21T07:35:05;101124.53;;;16.01;45.03
59493;BME280;45497;43.996;22.876;2023-03-21T07:37:31;101115.84;;;15.92;44.53
59493;BME280;45497;43.996;22.876;2023-03-21T07:39:56;101129.44;;;15.97;44.74
59493;BME280;45497;43.996;22.876;2023-03-21T07:42:22;101117.97;;;16.03;44.51
59493;BME280;45497;43.996;22.876;2023-03-21T07:44:47;101115.47;;;16.02;44.51
59493;BME280;45497;43.996;22.876;2023-03-21T07:47:13;101116.38;;;16.16;44.31
59493;BME280;45497;43.996;22.876;2023-03-21T07:49:38;101124.09;;;16.32;44.13
59493;BME280;45497;43.996;22.876;2023-03-21T07:52:04;101113.44;;;16.39;43.89
59493;BME280;45497;43.996;22.876;2023-03-21T07:54:30;101113.28;;;16.54;43.64
59493;BME280;45497;43.996;22.876;2023-03-21T07:56:56;101112.47;;;16.53;43.35
59493;BME280;45497;43.996;22.876;2023-03-21T07:59:22;101102.84;;;16.66;43.14
59493;BME280;45497;43.996;22.876;2023-03-21T08:01:47;101106.78;;;16.76;43.07
59493;BME280;45497;43.996;22.876;2023-03-21T08:04:13;101106.13;;;16.74;43.01
59493;BME280;45497;43.996;22.876;2023-03-21T08:06:39;101091.59;;;16.84;42.95
59493;BME280;45497;43.996;22.876;2023-03-21T08:09:05;101096.16;;;16.96;42.57
59493;BME280;45497;43.996;22.876;2023-03-21T08:11:31;101085.88;;;17.00;42.47
59493;BME280;45497;43.996;22.876;2023-03-21T08:13:57;101084.84;;;17.14;42.34
59493;BME280;45497;43.996;22.876;2023-03-21T08:16:23;101081.13;;;17.15;41.95
59493;BME280;45497;43.996;22.876;2023-03-21T08:18:48;101080.50;;;17.27;41.70
59493;BME280;45497;43.996;22.876;2023-03-21T08:21:14;101074.75;;;17.36;41.69
59493;BME280;45497;43.996;22.876;2023-03-21T08:23:40;101079.69;;;17.46;41.44
59493;BME280;45497;43.996;22.876;2023-03-21T08:26:06;101084.22;;;17.59;41.21
59493;BME280;45497;43.996;22.876;2023-03-21T08:28:32;101075.78;;;17.69;41.14
59493;BME280;45497;43.996;22.876;2023-03-21T08:30:57;101069.56;;;17.82;41.13
59493;BME280;45497;43.996;22.876;2023-03-21T08:33:22;101067.13;;;17.87;40.47
59493;BME280;45497;43.996;22.876;2023-03-21T08:35:48;101061.31;;;18.03;40.19
59493;BME280;45497;43.996;22.876;2023-03-21T08:38:14;101064.19;;;18.08;39.51
59493;BME280;45497;43.996;22.876;2023-03-21T08:40:41;101056.50;;;18.19;39.37
59493;BME280;45497;43.996;22.876;2023-03-21T08:43:06;101053.38;;;18.28;39.07
59493;BME280;45497;43.996;22.876;2023-03-21T08:45:32;101061.59;;;18.40;39.82
59493;BME280;45497;43.996;22.876;2023-03-21T08:47:57;101060.31;;;18.43;39.09
59493;BME280;45497;43.996;22.876;2023-03-21T08:50:24;101057.06;;;18.34;39.19
59493;BME280;45497;43.996;22.876;2023-03-21T08:52:50;101058.28;;;18.38;39.03
59493;BME280;45497;43.996;22.876;2023-03-21T08:55:17;101065.03;;;18.47;39.11
59493;BME280;45497;43.996;22.876;2023-03-21T08:57:44;101053.03;;;18.57;39.02
59493;BME280;45497;43.996;22.876;2023-03-21T09:00:12;101059.25;;;18.50;38.60
59493;BME280;45497;43.996;22.876;2023-03-21T09:02:40;101057.16;;;18.52;38.74
59493;BME280;45497;43.996;22.876;2023-03-21T09:05:06;101051.25;;;18.76;38.54
59493;BME280;45497;43.996;22.876;2023-03-21T09:07:33;101051.84;;;18.91;38.54
59493;BME280;45497;43.996;22.876;2023-03-21T09:10:01;101056.53;;;18.96;38.55
59493;BME280;45497;43.996;22.876;2023-03-21T09:12:27;101049.47;;;19.01;38.29
59493;BME280;45497;43.996;22.876;2023-03-21T09:14:52;101044.94;;;19.02;37.90
59493;BME280;45497;43.996;22.876;2023-03-21T09:17:18;101044.88;;;19.08;38.11
59493;BME280;45497;43.996;22.876;2023-03-21T09:19:44;101046.66;;;19.21;38.05
59493;BME280;45497;43.996;22.876;2023-03-21T09:22:12;101044.63;;;19.17;37.89
59493;BME280;45497;43.996;22.876;2023-03-21T09:24:39;101043.81;;;19.16;37.57
59493;BME280;45497;43.996;22.876;2023-03-21T09:27:06;101038.50;;;19.03;37.80
59493;BME280;45497;43.996;22.876;2023-03-21T09:29:32;101034.06;;;18.90;38.08
59493;BME280;45497;43.996;22.876;2023-03-21T09:31:58;101032.69;;;18.74;37.76
59493;BME280;45497;43.996;22.876;2023-03-21T09:34:26;101026.09;;;18.70;38.18
59493;BME280;45497;43.996;22.876;2023-03-21T09:36:52;101031.75;;;18.94;38.25
59493;BME280;45497;43.996;22.876;2023-03-21T09:39:21;101031.19;;;19.17;37.90
59493;BME280;45497;43.996;22.876;2023-03-21T09:41:53;101029.97;;;19.13;37.70
59493;BME280;45497;43.996;22.876;2023-03-21T09:50:10;101022.41;;;19.28;37.92
59493;BME280;45497;43.996;22.876;2023-03-21T09:52:45;101030.41;;;19.35;37.25
59493;BME280;45497;43.996;22.876;2023-03-21T09:55:21;101030.28;;;19.48;37.28
59493;BME280;45497;43.996;22.876;2023-03-21T10:01:16;101034.25;;;19.64;37.03
59493;BME280;45497;43.996;22.876;2023-03-21T10:03:53;101025.53;;;19.68;37.07
59493;BME280;45497;43.996;22.876;2023-03-21T10:06:21;101018.41;;;19.81;36.69
59493;BME280;45497;43.996;22.876;2023-03-21T10:09:14;101017.66;;;19.92;36.40
59493;BME280;45497;43.996;22.876;2023-03-21T10:11:47;101022.81;;;19.94;36.59
59493;BME280;45497;43.996;22.876;2023-03-21T10:14:24;101020.28;;;19.99;36.26
59493;BME280;45497;43.996;22.876;2023-03-21T10:16:56;101017.34;;;20.00;36.22
59493;BME280;45497;43.996;22.876;2023-03-21T10:19:23;101016.00;;;20.10;36.46
59493;BME280;45497;43.996;22.876;2023-03-21T10:21:51;101017.56;;;20.17;36.11
59493;BME280;45497;43.996;22.876;2023-03-21T10:24:27;101016.13;;;20.15;36.29
59493;BME280;45497;43.996;22.876;2023-03-21T10:26:54;101011.31;;;20.35;36.15
59493;BME280;45497;43.996;22.876;2023-03-21T10:29:24;101006.41;;;20.62;36.12
59493;BME280;45497;43.996;22.876;2023-03-21T10:31:51;101002.28;;;20.60;36.05
59493;BME280;45497;43.996;22.876;2023-03-21T10:34:27;101001.25;;;20.61;35.96
59493;BME280;45497;43.996;22.876;2023-03-21T10:36:55;101003.28;;;20.66;35.77
59493;BME280;45497;43.996;22.876;2023-03-21T10:39:30;100998.97;;;20.76;35.88
59493;BME280;45497;43.996;22.876;2023-03-21T10:41:56;100993.81;;;20.75;35.62
59493;BME280;45497;43.996;22.876;2023-03-21T10:44:28;100994.38;;;20.77;35.31
59493;BME280;45497;43.996;22.876;2023-03-21T10:46:56;100997.56;;;20.86;35.11
59493;BME280;45497;43.996;22.876;2023-03-21T10:49:23;100997.81;;;20.84;34.89
59493;BME280;45497;43.996;22.876;2023-03-21T10:51:54;100984.81;;;20.93;34.66
59493;BME280;45497;43.996;22.876;2023-03-21T10:54:25;100989.13;;;20.82;34.88
59493;BME280;45497;43.996;22.876;2023-03-21T10:57:04;100982.44;;;20.73;34.91
59493;BME280;45497;43.996;22.876;2023-03-21T10:59:42;100978.22;;;20.77;34.79
59493;BME280;45497;43.996;22.876;2023-03-21T11:02:32;100977.41;;;20.76;35.09
59493;BME280;45497;43.996;22.876;2023-03-21T11:07:54;100966.50;;;20.83;34.83
59493;BME280;45497;43.996;22.876;2023-03-21T11:10:31;100960.75;;;20.79;34.95
59493;BME280;45497;43.996;22.876;2023-03-21T11:13:03;100948.13;;;20.80;34.99
59493;BME280;45497;43.996;22.876;2023-03-21T11:18:41;100948.97;;;20.92;34.66
59493;BME280;45497;43.996;22.876;2023-03-21T11:21:12;100947.22;;;20.98;34.58
59493;BME280;45497;43.996;22.876;2023-03-21T11:23:43;100948.38;;;21.02;34.27
59493;BME280;45497;43.996;22.876;2023-03-21T11:26:18;100930.31;;;21.03;34.23
59493;BME280;45497;43.996;22.876;2023-03-21T11:28:48;100927.41;;;21.04;34.47
59493;BME280;45497;43.996;22.876;2023-03-21T11:31:15;100928.09;;;21.11;34.27
59493;BME280;45497;43.996;22.876;2023-03-21T11:33:46;100931.97;;;21.15;34.21
59493;BME280;45497;43.996;22.876;2023-03-21T11:38:48;100910.03;;;21.12;34.36
59493;BME280;45497;43.996;22.876;2023-03-21T11:41:35;100912.75;;;21.00;34.37
59493;BME280;45497;43.996;22.876;2023-03-21T11:44:04;100912.88;;;20.81;34.57
59493;BME280;45497;43.996;22.876;2023-03-21T11:46:31;100911.47;;;20.79;34.63
59493;BME280;45497;43.996;22.876;2023-03-21T11:48:58;100900.22;;;20.82;34.79
59493;BME280;45497;43.996;22.876;2023-03-21T11:57:10;100901.63;;;21.08;34.98
59493;BME280;45497;43.996;22.876;2023-03-21T12:04:59;100896.47;;;21.18;35.11
59493;BME280;45497;43.996;22.876;2023-03-21T12:08:01;100889.19;;;21.31;35.00
59493;BME280;45497;43.996;22.876;2023-03-21T12:10:31;100874.50;;;21.38;34.78
59493;BME280;45497;43.996;22.876;2023-03-21T12:15:43;100879.19;;;21.43;34.64
59493;BME280;45497;43.996;22.876;2023-03-21T12:18:37;100876.03;;;21.46;34.84
59493;BME280;45497;43.996;22.876;2023-03-21T12:24:04;100874.00;;;21.53;34.79
59493;BME280;45497;43.996;22.876;2023-03-21T12:29:49;100872.25;;;21.59;34.56
59493;BME280;45497;43.996;22.876;2023-03-21T12:46:02;100861.66;;;21.69;34.65
59493;BME280;45497;43.996;22.876;2023-03-21T12:48:38;100853.22;;;21.66;34.70
59493;BME280;45497;43.996;22.876;2023-03-21T12:51:10;100846.03;;;21.71;34.53
59493;BME280;45497;43.996;22.876;2023-03-21T12:59:38;100837.78;;;21.49;32.85
59493;BME280;45497;43.996;22.876;2023-03-21T13:02:17;100838.28;;;21.46;32.92
59493;BME280;45497;43.996;22.876;2023-03-21T13:04:55;100840.34;;;21.44;32.59
59493;BME280;45497;43.996;22.876;2023-03-21T13:07:23;100835.25;;;21.31;32.70
59493;BME280;45497;43.996;22.876;2023-03-21T13:09:50;100831.13;;;21.52;32.44
59493;BME280;45497;43.996;22.876;2023-03-21T13:23:10;100826.31;;;21.54;33.47
59493;BME280;45497;43.996;22.876;2023-03-21T13:25:42;100828.91;;;21.49;34.04
59493;BME280;45497;43.996;22.876;2023-03-21T13:28:26;100826.53;;;21.52;34.18
59493;BME280;45497;43.996;22.876;2023-03-21T13:30:52;100826.97;;;21.61;33.84
59493;BME280;45497;43.996;22.876;2023-03-21T13:33:39;100827.34;;;21.53;33.85
59493;BME280;45497;43.996;22.876;2023-03-21T13:36:12;100823.28;;;21.50;33.81
59493;BME280;45497;43.996;22.876;2023-03-21T13:38:39;100829.47;;;21.51;34.04
59493;BME280;45497;43.996;22.876;2023-03-21T13:41:37;100824.56;;;21.48;34.06
59493;BME280;45497;43.996;22.876;2023-03-21T13:44:07;100824.69;;;21.41;34.21
59493;BME280;45497;43.996;22.876;2023-03-21T13:46:52;100823.72;;;21.35;34.33
59493;BME280;45497;43.996;22.876;2023-03-21T13:49:30;100813.09;;;21.29;34.41
59493;BME280;45497;43.996;22.876;2023-03-21T13:51:58;100818.72;;;21.27;34.46
59493;BME280;45497;43.996;22.876;2023-03-21T13:57:52;100821.53;;;21.32;34.48
59493;BME280;45497;43.996;22.876;2023-03-21T14:00:26;100815.31;;;21.32;34.09
59493;BME280;45497;43.996;22.876;2023-03-21T14:03:00;100806.06;;;21.28;34.31
59493;BME280;45497;43.996;22.876;2023-03-21T14:05:30;100812.88;;;21.18;34.24
59493;BME280;45497;43.996;22.876;2023-03-21T14:08:00;100803.41;;;21.16;34.21
59493;BME280;45497;43.996;22.876;2023-03-21T14:10:37;100801.19;;;21.13;34.01
59493;BME280;45497;43.996;22.876;2023-03-21T14:13:08;100802.91;;;21.19;33.99
59493;BME280;45497;43.996;22.876;2023-03-21T14:15:43;100800.22;;;21.19;34.08
59493;BME280;45497;43.996;22.876;2023-03-21T14:18:14;100801.75;;;21.15;33.71
59493;BME280;45497;43.996;22.876;2023-03-21T14:20:40;100799.28;;;21.13;34.03
59493;BME280;45497;43.996;22.876;2023-03-21T14:23:11;100799.88;;;21.15;34.44
59493;BME280;45497;43.996;22.876;2023-03-21T14:25:39;100787.47;;;21.14;34.38
59493;BME280;45497;43.996;22.876;2023-03-21T14:30:41;100795.44;;;21.09;34.74
59493;BME280;45497;43.996;22.876;2023-03-21T14:33:55;100797.22;;;21.04;34.81